Providence, Rhode Island
Traffic Map
Current Weather Conditions
Providence, Rhode Island
Clear
Clear
48°
Feels Like: 45°
Wind Chill: 45° Ceiling: Unl
Heat Index: 48° Visibility: 10mi
Dew Point: 44° Wind: 7mph
Humidity: 86% Direction: 180° (S)
Pressure: 30.18in Gusts: 0mph
Raw Report DataKPVD 040451Z 18006KT 10SM CLR 09/07 A3018 RMK AO2 SLP220 T00890067 401670056
Traffic Incident Summary
Active as of:
Severity:
Category:
InformationThere was an issue retrieving the traffic information for this location. Please try a different location or try again shortly.
Advertisements
Track Severe Weather on mobile